createdAt,value
2022-08-30T00:00:46.961Z,7.50
2022-08-30T00:03:16.954Z,7.75
2022-08-30T00:05:45.968Z,7.80
2022-08-30T00:08:13.999Z,8.02
2022-08-30T00:10:43.667Z,8.07
2022-08-30T00:13:13.354Z,8.02
2022-08-30T00:15:41.869Z,7.93
2022-08-30T00:18:10.309Z,8.75
2022-08-30T00:20:39.788Z,8.88
2022-08-30T00:23:07.663Z,7.75
2022-08-30T00:25:35.746Z,8.18
2022-08-30T00:28:03.955Z,8.80
2022-08-30T00:30:32.102Z,8.52
2022-08-30T00:33:00.086Z,8.70
2022-08-30T00:35:27.982Z,8.75
2022-08-30T00:37:57.069Z,8.40
2022-08-30T00:40:27.269Z,8.43
2022-08-30T00:42:59.490Z,8.48
2022-08-30T00:47:57.368Z,8.70
2022-08-30T00:50:34.130Z,9.85
2022-08-30T00:53:06.827Z,9.32
2022-08-30T00:55:34.928Z,8.52
2022-08-30T00:58:09.160Z,9.18
2022-08-30T01:00:37.490Z,9.27
2022-08-30T01:03:05.638Z,9.48
2022-08-30T01:05:33.607Z,9.23
2022-08-30T01:08:08.359Z,9.48
2022-08-30T01:10:39.645Z,8.80
2022-08-30T01:13:07.497Z,9.63
2022-08-30T01:15:35.801Z,8.23
2022-08-30T01:18:07.743Z,8.73
2022-08-30T01:23:14.125Z,9.20
2022-08-30T01:25:45.332Z,8.50
2022-08-30T01:28:17.012Z,9.73
2022-08-30T01:30:46.014Z,9.35
2022-08-30T01:33:14.313Z,8.80
2022-08-30T01:35:48.847Z,9.82
2022-08-30T01:38:19.461Z,9.75
2022-08-30T01:40:47.197Z,9.48
2022-08-30T01:43:15.945Z,9.48
2022-08-30T01:45:44.084Z,10.07
2022-08-30T01:48:13.310Z,9.30
2022-08-30T01:50:41.827Z,8.75
2022-08-30T01:53:13.142Z,9.88
2022-08-30T01:55:42.815Z,10.05
2022-08-30T01:58:11.262Z,9.93
2022-08-30T02:00:39.405Z,9.82
2022-08-30T02:03:07.515Z,10.57
2022-08-30T02:05:35.303Z,10.00
2022-08-30T02:08:03.526Z,9.90
2022-08-30T02:10:31.656Z,9.68
2022-08-30T02:13:00.760Z,10.15
2022-08-30T02:15:28.869Z,10.00
2022-08-30T02:17:56.685Z,10.20
2022-08-30T02:20:24.533Z,10.48
2022-08-30T02:22:52.273Z,10.32
2022-08-30T02:25:21.081Z,10.10
2022-08-30T02:27:49.123Z,10.13
2022-08-30T02:30:18.501Z,10.25
2022-08-30T02:32:46.226Z,10.35
2022-08-30T02:35:13.999Z,10.10
2022-08-30T02:37:41.753Z,10.68
2022-08-30T02:40:11.073Z,9.85
2022-08-30T02:42:39.099Z,10.02
2022-08-30T02:45:07.746Z,10.88
2022-08-30T02:47:37.535Z,11.02
2022-08-30T02:50:06.894Z,10.77
2022-08-30T02:52:34.646Z,10.57
2022-08-30T02:55:02.464Z,10.70
2022-08-30T02:57:30.206Z,9.80
2022-08-30T02:59:58.654Z,9.60
2022-08-30T03:02:27.232Z,10.13
2022-08-30T03:04:57.501Z,10.57
2022-08-30T03:07:25.278Z,10.05
2022-08-30T03:09:53.288Z,10.40
2022-08-30T03:12:21.086Z,10.68
2022-08-30T03:14:49.215Z,10.32
2022-08-30T03:17:17.430Z,10.23
2022-08-30T03:19:46.093Z,10.45
2022-08-30T03:22:15.211Z,9.98
2022-08-30T03:24:43.093Z,10.75
2022-08-30T03:27:10.835Z,9.73
2022-08-30T03:29:39.340Z,11.18
2022-08-30T03:32:07.480Z,11.57
2022-08-30T03:34:35.801Z,11.85
2022-08-30T03:37:03.694Z,11.18
2022-08-30T03:39:32.807Z,11.75
2022-08-30T03:42:00.715Z,10.75
2022-08-30T03:44:30.407Z,11.98
2022-08-30T03:46:58.166Z,10.52
2022-08-30T03:49:26.027Z,11.60
2022-08-30T03:51:53.794Z,11.50
2022-08-30T03:54:23.440Z,11.02
2022-08-30T03:56:54.020Z,11.48
2022-08-30T03:59:21.756Z,11.55
2022-08-30T04:01:49.595Z,11.40
2022-08-30T04:04:20.966Z,12.50
2022-08-30T04:06:49.666Z,12.50
2022-08-30T04:09:18.154Z,13.70
2022-08-30T04:11:45.905Z,14.00
2022-08-30T04:14:15.183Z,13.45
2022-08-30T04:16:43.064Z,13.43
2022-08-30T04:19:10.961Z,13.27
2022-08-30T04:21:42.850Z,13.80
2022-08-30T04:24:11.236Z,13.80
2022-08-30T04:26:39.066Z,12.77
2022-08-30T04:29:07.105Z,13.02
2022-08-30T04:31:36.322Z,14.57
2022-08-30T04:34:04.677Z,12.48
2022-08-30T04:36:32.473Z,12.98
2022-08-30T04:39:00.194Z,12.63
2022-08-30T04:41:27.975Z,12.77
2022-08-30T04:43:55.726Z,13.35
2022-08-30T04:46:23.457Z,14.02
2022-08-30T04:48:52.715Z,14.07
2022-08-30T04:51:20.482Z,13.70
2022-08-30T04:53:50.703Z,13.38
2022-08-30T04:56:22.392Z,13.68
2022-08-30T04:58:53.128Z,14.40
2022-08-30T05:01:24.000Z,13.70
2022-08-30T05:03:55.171Z,14.35
2022-08-30T05:06:23.701Z,13.23
2022-08-30T05:08:51.855Z,14.45
2022-08-30T05:11:19.983Z,13.70
2022-08-30T05:13:47.929Z,13.18
2022-08-30T05:16:17.891Z,13.75
2022-08-30T05:18:46.290Z,13.65
2022-08-30T05:21:17.575Z,13.65
2022-08-30T05:23:46.550Z,13.70
2022-08-30T05:26:17.102Z,13.45
2022-08-30T05:28:45.509Z,13.32
2022-08-30T05:31:16.587Z,13.75
2022-08-30T05:33:45.041Z,14.02
2022-08-30T05:36:15.719Z,14.00
2022-08-30T05:38:44.346Z,13.63
2022-08-30T05:41:12.746Z,14.27
2022-08-30T05:43:40.850Z,13.35
2022-08-30T05:46:10.389Z,12.35
2022-08-30T05:48:38.688Z,13.25
2022-08-30T05:51:08.753Z,12.40
2022-08-30T05:53:37.913Z,13.32
2022-08-30T05:56:07.666Z,12.30
2022-08-30T05:58:36.327Z,13.18
2022-08-30T06:01:05.246Z,12.50
2022-08-30T06:03:33.757Z,12.65
2022-08-30T06:06:02.900Z,12.77
2022-08-30T06:08:30.715Z,15.30
2022-08-30T06:10:59.819Z,14.00
2022-08-30T06:13:27.641Z,12.65
2022-08-30T06:15:55.435Z,12.05
2022-08-30T06:18:28.754Z,11.20
2022-08-30T06:20:56.751Z,11.27
2022-08-30T06:23:24.688Z,10.65
2022-08-30T06:25:52.523Z,10.35
2022-08-30T06:28:21.724Z,11.10
2022-08-30T06:30:49.514Z,10.55
2022-08-30T06:33:17.380Z,9.88
2022-08-30T06:35:58.137Z,10.60
2022-08-30T06:38:27.641Z,11.13
2022-08-30T06:40:55.409Z,10.70
2022-08-30T06:43:24.691Z,10.85
2022-08-30T06:45:52.870Z,10.27
2022-08-30T06:48:20.629Z,10.25
2022-08-30T06:50:54.782Z,19.42
2022-08-30T06:53:23.108Z,14.35
2022-08-30T06:55:57.733Z,11.93
2022-08-30T06:58:27.223Z,11.23
2022-08-30T07:00:55.221Z,11.20
2022-08-30T07:03:23.424Z,11.68
2022-08-30T07:05:51.485Z,10.35
2022-08-30T07:08:19.277Z,10.63
2022-08-30T07:10:47.446Z,12.73
2022-08-30T07:13:15.182Z,10.73
2022-08-30T07:15:45.769Z,9.93
2022-08-30T07:18:32.200Z,11.07
2022-08-30T07:21:06.214Z,10.52
2022-08-30T07:23:33.913Z,10.40
2022-08-30T07:26:05.259Z,9.93
2022-08-30T07:28:33.561Z,9.05
2022-08-30T07:31:02.955Z,9.93
2022-08-30T07:33:31.231Z,8.85
2022-08-30T07:35:59.380Z,9.02
2022-08-30T07:38:30.299Z,9.40
2022-08-30T07:41:01.146Z,8.80
2022-08-30T07:43:29.241Z,9.68
2022-08-30T07:45:58.209Z,9.52
2022-08-30T07:48:27.460Z,9.02
2022-08-30T07:50:58.990Z,9.80
2022-08-30T07:53:28.963Z,10.77
2022-08-30T07:55:56.773Z,10.73
2022-08-30T07:58:24.533Z,10.23
2022-08-30T08:00:52.576Z,9.35
2022-08-30T08:03:20.355Z,9.77
2022-08-30T08:05:49.473Z,9.70
2022-08-30T08:08:17.402Z,8.57
2022-08-30T08:10:45.296Z,9.18
2022-08-30T08:13:13.278Z,7.88
2022-08-30T08:15:41.676Z,7.82
2022-08-30T08:18:09.868Z,7.20
2022-08-30T08:20:38.675Z,7.40
2022-08-30T08:23:08.825Z,7.88
2022-08-30T08:25:40.130Z,7.13
2022-08-30T08:28:09.651Z,6.68
2022-08-30T08:30:38.741Z,7.95
2022-08-30T08:33:07.220Z,19.45
2022-08-30T08:35:35.392Z,6.72
2022-08-30T08:38:03.356Z,8.15
2022-08-30T08:40:41.942Z,6.30
2022-08-30T08:43:14.344Z,6.57
2022-08-30T08:45:55.552Z,6.07
2022-08-30T08:48:51.972Z,5.82
2022-08-30T08:51:41.514Z,7.03
2022-08-30T08:54:12.764Z,6.35
2022-08-30T08:56:42.027Z,6.28
2022-08-30T08:59:12.577Z,7.10
2022-08-30T09:01:40.509Z,7.68
2022-08-30T09:04:13.487Z,9.00
2022-08-30T09:06:53.647Z,7.63
2022-08-30T09:09:28.865Z,8.00
2022-08-30T09:11:58.062Z,7.97
2022-08-30T09:14:30.765Z,7.65
2022-08-30T09:17:02.834Z,7.38
2022-08-30T09:19:41.336Z,8.05
2022-08-30T09:22:26.446Z,8.05
2022-08-30T09:24:56.805Z,7.82
2022-08-30T09:27:30.572Z,8.38
2022-08-30T09:30:05.870Z,7.57
2022-08-30T09:32:38.684Z,10.20
2022-08-30T09:35:11.785Z,10.38
2022-08-30T09:37:46.960Z,7.75
2022-08-30T09:40:22.377Z,8.45
2022-08-30T09:43:04.035Z,7.45
2022-08-30T09:45:36.005Z,7.50
2022-08-30T09:48:23.431Z,7.22
2022-08-30T09:51:03.065Z,7.40
2022-08-30T09:53:36.110Z,6.10
2022-08-30T09:56:10.096Z,6.35
2022-08-30T09:58:54.055Z,5.88
2022-08-30T10:01:29.449Z,7.22
2022-08-30T10:04:07.485Z,6.97
2022-08-30T10:06:42.838Z,6.45
2022-08-30T10:09:23.957Z,6.40
2022-08-30T10:11:57.801Z,6.78
2022-08-30T10:14:59.100Z,6.90
2022-08-30T10:17:43.447Z,6.82
2022-08-30T10:20:20.367Z,6.63
2022-08-30T10:22:52.230Z,7.05
2022-08-30T10:25:26.544Z,6.68
2022-08-30T10:27:59.741Z,6.45
2022-08-30T10:30:31.724Z,7.55
2022-08-30T10:33:06.997Z,7.03
2022-08-30T10:35:41.126Z,6.10
2022-08-30T10:38:19.449Z,6.97
2022-08-30T10:41:09.195Z,6.85
2022-08-30T10:43:50.866Z,6.40
2022-08-30T10:46:27.621Z,6.55
2022-08-30T10:48:57.311Z,7.07
2022-08-30T10:51:33.187Z,6.78
2022-08-30T10:54:09.298Z,6.60
2022-08-30T10:56:42.365Z,6.88
2022-08-30T10:59:11.990Z,7.00
2022-08-30T11:02:03.298Z,6.00
2022-08-30T11:05:03.768Z,6.13
2022-08-30T11:07:43.552Z,6.47
2022-08-30T11:10:26.955Z,6.68
2022-08-30T11:13:00.656Z,6.05
2022-08-30T11:15:31.698Z,6.20
2022-08-30T11:18:04.523Z,6.13
2022-08-30T11:20:37.595Z,5.78
2022-08-30T11:23:23.191Z,5.57
2022-08-30T11:25:57.974Z,6.68
2022-08-30T11:29:03.403Z,6.15
2022-08-30T11:31:37.881Z,5.72
2022-08-30T11:34:07.954Z,6.55
2022-08-30T11:37:09.422Z,5.43
2022-08-30T11:40:04.021Z,6.45
2022-08-30T11:45:55.672Z,5.60
2022-08-30T11:48:54.078Z,6.65
2022-08-30T11:55:06.940Z,6.65
2022-08-30T11:57:45.433Z,6.15
2022-08-30T12:00:29.946Z,6.35
2022-08-30T12:03:02.282Z,6.13
2022-08-30T12:05:59.555Z,6.05
2022-08-30T12:09:02.195Z,5.57
2022-08-30T12:12:03.067Z,5.80
2022-08-30T12:14:48.773Z,5.75
2022-08-30T12:17:48.429Z,5.43
2022-08-30T12:20:28.426Z,5.07
2022-08-30T12:22:57.600Z,5.15
2022-08-30T12:25:30.441Z,5.22
2022-08-30T12:28:16.406Z,4.50
2022-08-30T12:30:46.667Z,4.80
2022-08-30T12:33:24.054Z,4.40
2022-08-30T12:35:59.364Z,4.75
2022-08-30T12:40:59.453Z,4.95
2022-08-30T12:43:33.484Z,4.78
2022-08-30T12:46:12.672Z,4.72
2022-08-30T12:48:44.432Z,4.70
2022-08-30T12:51:28.506Z,4.50
2022-08-30T12:54:06.473Z,4.88
2022-08-30T12:57:13.932Z,4.38
2022-08-30T12:59:59.315Z,4.65
2022-08-30T13:02:29.930Z,4.37
2022-08-30T13:04:58.552Z,4.95
2022-08-30T13:07:35.471Z,6.47
2022-08-30T13:10:19.448Z,4.63
2022-08-30T13:13:01.962Z,4.75
2022-08-30T13:15:33.671Z,4.95
2022-08-30T13:18:22.237Z,4.38
2022-08-30T13:21:11.249Z,3.75
2022-08-30T13:23:40.472Z,4.22
2022-08-30T13:26:09.258Z,4.40
2022-08-30T13:28:48.963Z,3.85
2022-08-30T13:31:18.215Z,3.75
2022-08-30T13:33:46.708Z,4.47
2022-08-30T13:36:15.724Z,4.68
2022-08-30T13:38:43.656Z,4.68
2022-08-30T13:41:11.779Z,4.03
2022-08-30T13:46:28.852Z,4.05
2022-08-30T13:49:01.622Z,4.33
2022-08-30T13:51:29.656Z,3.67
2022-08-30T13:53:58.813Z,6.30
2022-08-30T13:56:27.775Z,3.80
2022-08-30T13:58:59.461Z,3.75
2022-08-30T14:01:29.342Z,3.33
2022-08-30T14:09:33.089Z,3.95
2022-08-30T14:12:01.110Z,4.43
2022-08-30T14:14:42.693Z,4.25
2022-08-30T14:17:13.001Z,4.13
2022-08-30T14:19:41.413Z,4.33
2022-08-30T14:22:09.555Z,3.95
2022-08-30T14:24:38.440Z,4.22
2022-08-30T14:27:06.826Z,4.00
2022-08-30T14:29:34.714Z,3.83
2022-08-30T14:32:03.585Z,3.90
2022-08-30T14:34:32.852Z,3.67
2022-08-30T14:37:00.604Z,3.75
2022-08-30T14:39:28.639Z,3.70
2022-08-30T14:41:57.069Z,3.25
2022-08-30T14:44:26.272Z,4.90
2022-08-30T14:46:55.293Z,4.55
2022-08-30T14:49:24.122Z,4.70
2022-08-30T14:51:53.663Z,3.95
2022-08-30T14:54:25.483Z,3.92
2022-08-30T14:56:54.378Z,3.70
2022-08-30T14:59:22.906Z,4.05
2022-08-30T15:01:50.722Z,3.67
2022-08-30T15:04:18.521Z,4.53
2022-08-30T15:06:50.707Z,3.75
2022-08-30T15:09:23.193Z,4.20
2022-08-30T15:11:52.378Z,4.00
2022-08-30T15:14:20.517Z,8.68
2022-08-30T15:16:48.361Z,3.92
2022-08-30T15:19:16.610Z,7.72
2022-08-30T15:21:46.695Z,6.22
2022-08-30T15:24:20.207Z,6.53
2022-08-30T15:26:57.809Z,3.90
2022-08-30T15:29:31.485Z,4.00
2022-08-30T15:32:01.418Z,4.10
2022-08-30T15:34:29.844Z,4.05
2022-08-30T15:36:58.418Z,3.78
2022-08-30T15:39:27.875Z,7.07
2022-08-30T15:42:00.788Z,6.60
2022-08-30T15:44:29.803Z,4.22
2022-08-30T15:46:57.655Z,4.10
2022-08-30T15:49:25.836Z,4.00
2022-08-30T15:51:54.659Z,5.53
2022-08-30T15:54:24.699Z,3.58
2022-08-30T15:56:59.408Z,6.32
2022-08-30T15:59:28.252Z,3.97
2022-08-30T16:01:57.373Z,3.92
2022-08-30T16:04:25.643Z,4.25
2022-08-30T16:06:53.543Z,3.97
2022-08-30T16:09:22.199Z,9.20
2022-08-30T16:11:50.428Z,4.10
2022-08-30T16:14:19.852Z,4.82
2022-08-30T16:16:47.721Z,3.90
2022-08-30T16:19:15.852Z,3.78
2022-08-30T16:21:44.115Z,4.22
2022-08-30T16:24:13.460Z,3.72
2022-08-30T16:26:43.593Z,4.05
2022-08-30T16:29:13.473Z,3.97
2022-08-30T16:31:44.772Z,3.97
2022-08-30T16:34:13.897Z,4.20
2022-08-30T16:36:42.932Z,3.78
2022-08-30T16:39:12.765Z,3.88
2022-08-30T16:41:41.349Z,4.22
2022-08-30T16:44:10.235Z,4.00
2022-08-30T16:46:41.403Z,4.40
2022-08-30T16:49:10.726Z,3.85
2022-08-30T16:51:39.102Z,4.38
2022-08-30T16:54:08.317Z,4.38
2022-08-30T16:56:38.541Z,4.65
2022-08-30T16:59:11.154Z,4.90
2022-08-30T17:01:41.103Z,5.90
2022-08-30T17:04:13.815Z,4.65
2022-08-30T17:06:43.721Z,4.95
2022-08-30T17:09:11.547Z,4.22
2022-08-30T17:11:40.489Z,4.88
2022-08-30T17:14:08.786Z,5.35
2022-08-30T17:16:38.396Z,4.85
2022-08-30T17:19:08.179Z,4.93
2022-08-30T17:21:37.295Z,4.97
2022-08-30T17:24:07.319Z,4.85
2022-08-30T17:26:37.153Z,5.28
2022-08-30T17:29:06.172Z,5.22
2022-08-30T17:34:24.871Z,4.45
2022-08-30T17:36:58.186Z,4.72
2022-08-30T17:39:27.406Z,5.32
2022-08-30T17:41:56.293Z,5.03
2022-08-30T17:44:28.949Z,4.20
2022-08-30T17:46:59.663Z,4.93
2022-08-30T17:49:28.808Z,4.78
2022-08-30T17:51:59.081Z,4.88
2022-08-30T17:54:28.412Z,4.60
2022-08-30T17:56:57.457Z,4.50
2022-08-30T17:59:31.527Z,5.05
2022-08-30T18:02:00.919Z,4.22
2022-08-30T18:04:29.788Z,3.92
2022-08-30T18:06:59.853Z,4.05
2022-08-30T18:09:31.811Z,3.67
2022-08-30T18:12:01.697Z,4.28
2022-08-30T18:14:29.513Z,3.53
2022-08-30T18:16:57.286Z,4.15
2022-08-30T18:19:25.600Z,4.88
2022-08-30T18:21:54.094Z,4.80
2022-08-30T18:24:23.962Z,4.70
2022-08-30T18:26:54.588Z,4.25
2022-08-30T18:29:29.460Z,4.15
2022-08-30T18:31:59.566Z,4.63
2022-08-30T18:34:27.956Z,3.85
2022-08-30T18:36:56.271Z,4.28
2022-08-30T18:39:26.157Z,4.38
2022-08-30T18:41:54.791Z,4.05
2022-08-30T18:44:29.188Z,3.83
2022-08-30T18:47:00.209Z,3.88
2022-08-30T18:49:28.649Z,3.65
2022-08-30T18:51:56.633Z,3.65
2022-08-30T18:54:25.771Z,7.50
2022-08-30T18:56:53.783Z,2.95
2022-08-30T18:59:23.006Z,3.33
2022-08-30T19:02:03.624Z,4.00
2022-08-30T19:04:35.012Z,3.42
2022-08-30T19:07:05.624Z,5.05
2022-08-30T19:09:35.257Z,3.22
2022-08-30T19:12:03.305Z,3.80
2022-08-30T19:14:35.774Z,2.90
2022-08-30T19:17:06.847Z,2.92
2022-08-30T19:19:36.170Z,3.00
2022-08-30T19:22:16.444Z,2.90
2022-08-30T19:24:45.681Z,3.15
2022-08-30T19:27:13.540Z,5.30
2022-08-30T19:29:41.336Z,3.20
2022-08-30T19:32:12.372Z,2.85
2022-08-30T19:34:42.106Z,2.80
2022-08-30T19:37:10.131Z,3.10
2022-08-30T19:39:43.095Z,2.92
2022-08-30T19:42:15.898Z,11.23
2022-08-30T19:44:44.371Z,3.45
2022-08-30T19:47:12.191Z,3.97
2022-08-30T19:49:40.129Z,3.90
2022-08-30T19:52:07.879Z,4.15
2022-08-30T19:54:35.661Z,3.92
2022-08-30T19:57:03.381Z,4.20
2022-08-30T19:59:32.617Z,4.15
2022-08-30T20:02:07.515Z,4.10
2022-08-30T20:04:35.429Z,3.95
2022-08-30T20:07:03.516Z,3.65
2022-08-30T20:09:31.361Z,4.32
2022-08-30T20:11:59.453Z,3.63
2022-08-30T20:14:27.183Z,3.65
2022-08-30T20:16:56.382Z,6.80
2022-08-30T20:19:27.439Z,3.47
2022-08-30T20:24:24.989Z,4.60
2022-08-30T20:24:44.327Z,3.75
2022-08-30T20:27:12.497Z,3.95
2022-08-30T20:29:41.934Z,3.63
2022-08-30T20:32:11.099Z,3.65
2022-08-30T20:34:39.624Z,3.47
2022-08-30T20:37:09.721Z,3.42
2022-08-30T20:39:39.272Z,3.63
2022-08-30T20:42:07.671Z,3.70
2022-08-30T20:44:35.564Z,3.70
2022-08-30T20:47:03.698Z,4.10
2022-08-30T20:49:32.929Z,3.60
2022-08-30T20:52:01.037Z,3.60
2022-08-30T20:57:00.318Z,3.10
2022-08-30T20:59:28.681Z,3.72
2022-08-30T21:01:58.171Z,3.33
2022-08-30T21:04:27.045Z,3.13
2022-08-30T21:06:56.158Z,3.10
2022-08-30T21:09:23.922Z,3.80
2022-08-30T21:11:51.814Z,3.35
2022-08-30T21:14:21.827Z,3.42
2022-08-30T21:16:49.801Z,3.30
2022-08-30T21:19:17.927Z,3.58
2022-08-30T21:21:45.931Z,6.40
2022-08-30T21:24:15.064Z,4.00
2022-08-30T21:26:43.516Z,3.78
2022-08-30T21:29:11.937Z,3.78
2022-08-30T21:31:39.768Z,3.17
2022-08-30T21:34:08.515Z,3.50
2022-08-30T21:36:47.066Z,4.20
2022-08-30T21:39:20.198Z,3.80
2022-08-30T21:41:48.541Z,3.63
2022-08-30T21:44:18.705Z,4.18
2022-08-30T21:46:47.988Z,4.18
2022-08-30T21:49:19.241Z,3.83
2022-08-30T21:51:48.939Z,3.73
2022-08-30T21:54:18.876Z,4.00
2022-08-30T21:56:50.904Z,3.95
2022-08-30T21:59:19.472Z,3.38
2022-08-30T22:01:48.203Z,3.88
2022-08-30T22:04:16.501Z,3.83
2022-08-30T22:06:48.047Z,3.95
2022-08-30T22:09:17.093Z,3.60
2022-08-30T22:11:46.717Z,4.05
2022-08-30T22:14:16.060Z,3.60
2022-08-30T22:16:46.328Z,3.42
2022-08-30T22:19:14.250Z,3.63
2022-08-30T22:21:44.723Z,3.55
2022-08-30T22:24:13.125Z,3.67
2022-08-30T22:26:41.460Z,3.83
2022-08-30T22:29:10.875Z,3.42
2022-08-30T22:31:41.657Z,4.00
2022-08-30T22:34:10.456Z,4.00
2022-08-30T22:36:39.264Z,3.78
2022-08-30T22:39:09.896Z,4.03
2022-08-30T22:41:38.609Z,3.70
2022-08-30T22:44:06.707Z,3.72
2022-08-30T22:46:37.160Z,3.92
2022-08-30T22:49:06.775Z,4.38
2022-08-30T22:51:35.755Z,4.22
2022-08-30T22:54:05.571Z,4.40
2022-08-30T22:56:35.016Z,6.05
2022-08-30T22:59:03.458Z,7.45
2022-08-30T23:01:42.451Z,8.10
2022-08-30T23:04:11.326Z,8.05
2022-08-30T23:06:39.121Z,8.02
2022-08-30T23:09:07.837Z,8.60
2022-08-30T23:11:37.751Z,8.68
2022-08-30T23:14:06.872Z,8.45
2022-08-30T23:16:36.565Z,6.85
2022-08-30T23:19:05.562Z,6.65
2022-08-30T23:21:33.296Z,6.05
2022-08-30T23:24:18.267Z,5.45
2022-08-30T23:27:04.291Z,5.22
2022-08-30T23:29:49.570Z,5.97
2022-08-30T23:32:36.676Z,5.93
2022-08-30T23:35:29.123Z,5.22
2022-08-30T23:38:15.390Z,5.97
2022-08-30T23:41:01.200Z,5.57
2022-08-30T23:43:46.538Z,5.28
2022-08-30T23:46:33.988Z,6.80
2022-08-30T23:49:20.501Z,6.57
2022-08-30T23:52:05.964Z,5.90
2022-08-30T23:54:51.780Z,6.35
2022-08-30T23:57:42.570Z,6.35
